createdAt,value
2018-12-02T00:00:54.524Z,99825.41
2018-12-02T00:03:23.672Z,99819.64
2018-12-02T00:05:52.588Z,99824.44
2018-12-02T00:08:21.541Z,99809.41
2018-12-02T00:10:50.423Z,99824.11
2018-12-02T00:13:19.335Z,99798.47
2018-12-02T00:15:48.287Z,99820.16
2018-12-02T00:18:17.179Z,99803.77
2018-12-02T00:20:46.075Z,99799.70
2018-12-02T00:23:14.962Z,99778.43
2018-12-02T00:25:43.863Z,99768.69
2018-12-02T00:28:12.750Z,99771.76
2018-12-02T00:30:41.664Z,99764.96
2018-12-02T00:33:10.589Z,99764.92
2018-12-02T00:35:39.507Z,99764.80
2018-12-02T00:38:08.941Z,99765.69
2018-12-02T00:40:37.837Z,99765.08
2018-12-02T00:43:07.856Z,99749.16
2018-12-02T00:45:37.658Z,99747.80
2018-12-02T00:48:07.736Z,99744.06
2018-12-02T00:50:36.669Z,99744.59
2018-12-02T00:53:06.968Z,99737.22
2018-12-02T00:55:43.025Z,99736.13
2018-12-02T00:58:11.902Z,99738.65
2018-12-02T01:00:40.808Z,99730.88
2018-12-02T01:03:10.432Z,99736.86
2018-12-02T01:05:39.337Z,99730.58
2018-12-02T01:08:08.304Z,99715.75
2018-12-02T01:10:37.409Z,99728.75
2018-12-02T01:13:10.104Z,99715.83
2018-12-02T01:15:40.221Z,99701.37
2018-12-02T01:18:09.584Z,99694.31
2018-12-02T01:20:39.303Z,99696.74
2018-12-02T01:23:08.277Z,99693.68
2018-12-02T01:25:37.261Z,99675.72
2018-12-02T01:28:06.671Z,99684.36
2018-12-02T01:30:35.697Z,99677.73
2018-12-02T01:33:04.619Z,99685.22
2018-12-02T01:35:33.493Z,99687.39
2018-12-02T01:38:02.393Z,99680.14
2018-12-02T01:40:31.283Z,99683.16
2018-12-02T01:43:00.189Z,99674.55
2018-12-02T01:45:29.122Z,99668.81
2018-12-02T01:47:58.015Z,99669.75
2018-12-02T01:50:27.213Z,99666.25
2018-12-02T01:52:56.944Z,99659.61
2018-12-02T01:55:25.862Z,99658.48
2018-12-02T01:57:54.745Z,99668.81
2018-12-02T02:00:27.781Z,99650.52
2018-12-02T02:02:57.212Z,99673.21
2018-12-02T02:05:26.851Z,99667.31
2018-12-02T02:07:55.726Z,99667.14
2018-12-02T02:10:28.318Z,99658.16
2018-12-02T02:12:57.225Z,99640.05
2018-12-02T02:15:26.139Z,99657.48
2018-12-02T02:17:55.007Z,99640.23
2018-12-02T02:20:24.705Z,99651.59
2018-12-02T02:22:53.705Z,99637.70
2018-12-02T02:25:23.505Z,99638.55
2018-12-02T02:27:54.109Z,99633.44
2018-12-02T02:30:24.152Z,99625.35
2018-12-02T02:32:53.077Z,99621.41
2018-12-02T02:35:22.543Z,99619.76
2018-12-02T02:37:55.323Z,99608.09
2018-12-02T02:40:30.651Z,99606.41
2018-12-02T02:42:59.528Z,99605.55
2018-12-02T02:45:28.434Z,99596.05
2018-12-02T02:47:57.335Z,99597.41
2018-12-02T02:50:26.546Z,99587.94
2018-12-02T02:52:59.586Z,99593.55
2018-12-02T02:55:28.506Z,99581.87
2018-12-02T02:57:57.480Z,99579.49
2018-12-02T03:00:29.549Z,99566.99
2018-12-02T03:02:58.431Z,99568.17
2018-12-02T03:05:27.296Z,99569.01
2018-12-02T03:07:56.192Z,99570.36
2018-12-02T03:10:25.089Z,99562.76
2018-12-02T03:12:54.427Z,99566.80
2018-12-02T03:15:23.926Z,99547.88
2018-12-02T03:17:52.816Z,99548.88
2018-12-02T03:20:22.529Z,99550.41
2018-12-02T03:22:54.936Z,99557.52
2018-12-02T03:25:24.811Z,99552.59
2018-12-02T03:27:53.866Z,99556.16
2018-12-02T03:30:23.430Z,99551.43
2018-12-02T03:32:52.396Z,99531.10
2018-12-02T03:35:22.243Z,99530.26
2018-12-02T03:37:51.441Z,99527.89
2018-12-02T03:40:27.488Z,99535.18
2018-12-02T03:42:56.463Z,99528.08
2018-12-02T03:45:28.537Z,99528.92
2018-12-02T03:47:58.168Z,99518.78
2018-12-02T03:50:27.059Z,99523.50
2018-12-02T03:52:55.966Z,99509.45
2018-12-02T03:55:24.849Z,99509.81
2018-12-02T03:57:54.024Z,99504.06
2018-12-02T04:00:24.219Z,99493.39
2018-12-02T04:02:53.964Z,99513.14
2018-12-02T04:05:26.433Z,99500.64
2018-12-02T04:07:55.326Z,99495.73
2018-12-02T04:10:24.218Z,99490.99
2018-12-02T04:12:53.455Z,99490.70
2018-12-02T04:15:25.655Z,99481.53
2018-12-02T04:17:54.526Z,99476.63
2018-12-02T04:20:23.428Z,99473.92
2018-12-02T04:22:52.736Z,99470.36
2018-12-02T04:25:25.462Z,99464.27
2018-12-02T04:27:54.335Z,99458.70
2018-12-02T04:30:23.726Z,99474.62
2018-12-02T04:32:53.250Z,99455.14
2018-12-02T04:35:25.811Z,99457.27
2018-12-02T04:37:54.754Z,99453.27
2018-12-02T04:40:23.640Z,99452.91
2018-12-02T04:42:52.522Z,99449.90
2018-12-02T04:45:21.407Z,99435.83
2018-12-02T04:47:50.405Z,99434.16
2018-12-02T04:50:25.430Z,99431.23
2018-12-02T04:52:54.318Z,99436.31
2018-12-02T04:55:23.222Z,99427.39
2018-12-02T04:57:52.138Z,99427.88
2018-12-02T05:00:21.491Z,99418.91
2018-12-02T05:02:51.288Z,99425.02
2018-12-02T05:05:24.098Z,99427.08
2018-12-02T05:07:53.591Z,99421.13
2018-12-02T05:10:22.616Z,99424.15
2018-12-02T05:12:51.814Z,99419.75
2018-12-02T05:15:21.386Z,99418.59
2018-12-02T05:17:50.295Z,99407.09
2018-12-02T05:20:20.220Z,99421.10
2018-12-02T05:22:49.101Z,99399.61
2018-12-02T05:25:18.746Z,99403.19
2018-12-02T05:27:47.290Z,99406.72
2018-12-02T05:30:22.739Z,99393.18
2018-12-02T05:32:54.742Z,99392.84
2018-12-02T05:35:23.606Z,99390.32
2018-12-02T05:37:55.532Z,99378.72
2018-12-02T05:40:24.699Z,99380.45
2018-12-02T05:42:54.088Z,99379.27
2018-12-02T05:45:23.209Z,99361.84
2018-12-02T05:47:52.135Z,99368.30
2018-12-02T05:50:24.823Z,99363.36
2018-12-02T05:53:00.227Z,99359.80
2018-12-02T05:55:30.380Z,99364.20
2018-12-02T05:57:59.266Z,99354.22
2018-12-02T06:00:28.160Z,99353.03
2018-12-02T06:02:57.058Z,99338.81
2018-12-02T06:05:25.966Z,99344.91
2018-12-02T06:07:54.885Z,99334.79
2018-12-02T06:10:23.867Z,99331.20
2018-12-02T06:12:52.764Z,99324.09
2018-12-02T06:15:21.929Z,99285.27
2018-12-02T06:17:50.845Z,99288.14
2018-12-02T06:20:26.520Z,99327.98
2018-12-02T06:22:56.256Z,99318.16
2018-12-02T06:25:25.160Z,99314.45
2018-12-02T06:27:54.115Z,99314.95
2018-12-02T06:30:29.448Z,99308.02
2018-12-02T06:32:59.602Z,99300.44
2018-12-02T06:35:28.533Z,99288.42
2018-12-02T06:37:58.519Z,99291.98
2018-12-02T06:40:28.319Z,99294.52
2018-12-02T06:42:57.192Z,99285.66
2018-12-02T06:45:26.118Z,99279.12
2018-12-02T06:47:55.003Z,99274.08
2018-12-02T06:50:27.679Z,99269.13
2018-12-02T06:52:57.269Z,99272.36
2018-12-02T06:55:59.849Z,99268.30
2018-12-02T06:59:11.825Z,99275.41
2018-12-02T07:02:24.000Z,99264.44
2018-12-02T07:04:52.897Z,99264.84
2018-12-02T07:07:21.769Z,99256.99
2018-12-02T07:09:50.683Z,99254.30
2018-12-02T07:12:19.550Z,99250.05
2018-12-02T07:14:48.464Z,99248.02
2018-12-02T07:17:17.364Z,99252.19
2018-12-02T07:19:48.643Z,99254.90
2018-12-02T07:22:20.874Z,99251.86
2018-12-02T07:24:51.244Z,99257.78
2018-12-02T07:27:20.135Z,99259.14
2018-12-02T07:29:49.011Z,99255.76
2018-12-02T07:32:17.891Z,99264.10
2018-12-02T07:34:46.783Z,99269.97
2018-12-02T07:37:20.421Z,99262.02
2018-12-02T07:40:28.018Z,99265.85
2018-12-02T07:42:56.949Z,99266.88
2018-12-02T07:45:25.823Z,99268.34
2018-12-02T07:47:54.720Z,99261.05
2018-12-02T07:50:23.620Z,99263.97
2018-12-02T07:52:52.529Z,99254.66
2018-12-02T07:55:21.409Z,99266.14
2018-12-02T07:57:50.284Z,99263.75
2018-12-02T08:00:19.154Z,99256.11
2018-12-02T08:02:48.101Z,99256.95
2018-12-02T08:05:17.649Z,99263.11
2018-12-02T08:07:48.081Z,99259.09
2018-12-02T08:10:17.996Z,99254.13
2018-12-02T08:12:46.887Z,99260.73
2018-12-02T08:15:17.016Z,99256.48
2018-12-02T08:17:45.912Z,99254.70
2018-12-02T08:20:15.946Z,99263.50
2018-12-02T08:22:51.121Z,99262.41
2018-12-02T08:25:15.347Z,99273.70
2018-12-02T08:27:44.252Z,99256.72
2018-12-02T08:30:20.284Z,99257.27
2018-12-02T08:32:49.184Z,99262.35
2018-12-02T08:35:19.263Z,99262.30
2018-12-02T08:37:52.072Z,99283.27
2018-12-02T08:40:20.971Z,99267.16
2018-12-02T08:42:49.876Z,99272.71
2018-12-02T08:45:19.145Z,99264.27
2018-12-02T08:47:48.047Z,99267.36
2018-12-02T08:50:17.862Z,99274.80
2018-12-02T08:52:47.895Z,99273.41
2018-12-02T08:55:17.785Z,99269.73
2018-12-02T08:57:47.075Z,99272.15
2018-12-02T09:00:19.608Z,99274.41
2018-12-02T09:03:08.692Z,99280.98
2018-12-02T09:05:37.560Z,99277.22
2018-12-02T09:08:07.945Z,99280.53
2018-12-02T09:10:36.882Z,99284.16
2018-12-02T09:13:07.761Z,99286.11
2018-12-02T09:15:36.666Z,99284.90
2018-12-02T09:18:07.799Z,99288.16
2018-12-02T09:20:36.702Z,99285.56
2018-12-02T09:23:07.194Z,99287.00
2018-12-02T09:25:36.153Z,99285.06
2018-12-02T09:28:05.409Z,99303.48
2018-12-02T09:30:35.319Z,99294.38
2018-12-02T09:33:04.239Z,99298.34
2018-12-02T09:35:33.141Z,99297.72
2018-12-02T09:38:02.037Z,99297.09
2018-12-02T09:40:30.927Z,99301.35
2018-12-02T09:42:59.844Z,99296.98
2018-12-02T09:45:29.603Z,99309.88
2018-12-02T09:48:00.211Z,99310.16
2018-12-02T09:50:29.702Z,99302.67
2018-12-02T09:52:59.676Z,99302.20
2018-12-02T09:55:49.281Z,99309.77
2018-12-02T09:58:26.514Z,99316.26
2018-12-02T10:01:05.784Z,99305.94
2018-12-02T10:03:42.225Z,99318.50
2018-12-02T10:06:17.126Z,99320.41
2018-12-02T10:08:46.722Z,99321.73
2018-12-02T10:11:16.703Z,99320.41
2018-12-02T10:13:46.555Z,99321.73
2018-12-02T10:16:19.055Z,99325.95
2018-12-02T10:18:46.706Z,99316.95
2018-12-02T10:21:19.144Z,99322.13
2018-12-02T10:23:49.122Z,99323.45
2018-12-02T10:26:21.957Z,99324.11
2018-12-02T10:28:54.366Z,99317.06
2018-12-02T10:31:24.877Z,99319.88
2018-12-02T10:33:54.519Z,99316.05
2018-12-02T10:36:26.486Z,99314.63
2018-12-02T10:38:56.400Z,99315.42
2018-12-02T10:41:27.162Z,99317.30
2018-12-02T10:43:56.630Z,99312.56
2018-12-02T10:46:26.117Z,99311.34
2018-12-02T10:48:57.277Z,99312.64
2018-12-02T10:51:25.184Z,99310.88
2018-12-02T10:54:00.043Z,99311.39
2018-12-02T10:56:29.926Z,99313.83
2018-12-02T10:58:59.349Z,99309.75
2018-12-02T11:01:42.380Z,99312.09
2018-12-02T11:04:14.973Z,99315.75
2018-12-02T11:06:46.581Z,99318.89
2018-12-02T11:09:18.883Z,99313.14
2018-12-02T11:11:51.570Z,99316.19
2018-12-02T11:14:28.439Z,99312.63
2018-12-02T11:16:57.879Z,99318.34
2018-12-02T11:19:29.108Z,99320.33
2018-12-02T11:21:59.311Z,99329.33
2018-12-02T11:24:29.285Z,99336.45
2018-12-02T11:26:58.635Z,99327.72
2018-12-02T11:29:33.687Z,99338.47
2018-12-02T11:32:06.123Z,99336.66
2018-12-02T11:34:36.813Z,99345.78
2018-12-02T11:37:07.110Z,99344.39
2018-12-02T11:39:37.313Z,99351.00
2018-12-02T11:42:07.392Z,99349.23
2018-12-02T11:44:36.793Z,99350.26
2018-12-02T11:47:14.365Z,99354.34
2018-12-02T11:49:49.679Z,99354.34
2018-12-02T11:52:22.382Z,99360.19
2018-12-02T11:54:51.589Z,99358.05
2018-12-02T11:57:26.534Z,99363.73
2018-12-02T11:59:54.376Z,99371.47
2018-12-02T12:02:24.326Z,99367.77
2018-12-02T12:04:54.262Z,99361.02
2018-12-02T12:07:25.514Z,99363.55
2018-12-02T12:09:59.394Z,99358.94
2018-12-02T12:12:28.872Z,99366.73
2018-12-02T12:14:58.372Z,99359.41
2018-12-02T12:17:29.985Z,99369.31
2018-12-02T12:19:59.576Z,99375.92
2018-12-02T12:22:33.115Z,99371.33
2018-12-02T12:25:02.983Z,99370.24
2018-12-02T12:27:35.801Z,99361.28
2018-12-02T12:30:09.042Z,99368.80
2018-12-02T12:32:38.508Z,99371.38
2018-12-02T12:35:11.435Z,99373.58
2018-12-02T12:37:41.687Z,99369.39
2018-12-02T12:40:33.583Z,99375.41
2018-12-02T12:43:40.453Z,99377.23
2018-12-02T12:46:12.521Z,99375.73
2018-12-02T12:48:42.766Z,99386.05
2018-12-02T12:51:12.700Z,99379.25
2018-12-02T12:53:42.164Z,99380.05
2018-12-02T12:56:15.321Z,99382.73
2018-12-02T12:58:44.969Z,99378.07
2018-12-02T13:01:14.378Z,99394.84
2018-12-02T13:03:44.294Z,99387.91
2018-12-02T13:06:13.473Z,99394.58
2018-12-02T13:08:47.234Z,99395.61
2018-12-02T13:11:17.106Z,99391.98
2018-12-02T13:13:49.252Z,99397.64
2018-12-02T13:16:24.531Z,99400.08
2018-12-02T13:18:57.970Z,99396.66
2018-12-02T13:21:28.969Z,99402.09
2018-12-02T13:23:58.786Z,99405.98
2018-12-02T13:26:31.766Z,99413.16
2018-12-02T13:29:01.470Z,99419.84
2018-12-02T13:31:38.086Z,99419.06
2018-12-02T13:34:08.317Z,99415.10
2018-12-02T13:36:39.785Z,99407.78
2018-12-02T13:39:12.500Z,99433.36
2018-12-02T13:41:42.032Z,99423.92
2018-12-02T13:44:11.663Z,99433.55
2018-12-02T13:46:43.201Z,99429.95
2018-12-02T13:49:13.088Z,99436.87
2018-12-02T13:51:42.367Z,99442.86
2018-12-02T13:54:32.018Z,99446.41
2018-12-02T13:57:01.792Z,99451.49
2018-12-02T13:59:31.259Z,99445.98
2018-12-02T14:02:06.596Z,99441.78
2018-12-02T14:04:36.068Z,99449.21
2018-12-02T14:07:08.792Z,99450.83
2018-12-02T14:09:38.264Z,99448.59
2018-12-02T14:12:09.872Z,99451.86
2018-12-02T14:14:43.088Z,99461.05
2018-12-02T14:17:18.971Z,99465.46
2018-12-02T14:19:53.910Z,99465.53
2018-12-02T14:22:23.120Z,99466.45
2018-12-02T14:24:55.836Z,99474.84
2018-12-02T14:27:30.374Z,99478.88
2018-12-02T14:29:58.279Z,99482.77
2018-12-02T14:32:28.381Z,99483.73
2018-12-02T14:34:57.990Z,99486.48
2018-12-02T14:37:27.736Z,99482.84
2018-12-02T14:39:59.329Z,99483.80
2018-12-02T14:42:28.972Z,99489.31
2018-12-02T14:44:58.610Z,99498.91
2018-12-02T14:47:27.951Z,99500.59
2018-12-02T14:50:02.975Z,99514.63
2018-12-02T14:52:35.625Z,99497.61
2018-12-02T14:55:07.238Z,99502.14
2018-12-02T14:57:36.670Z,99498.54
2018-12-02T15:00:16.849Z,99506.33
2018-12-02T15:02:45.239Z,99505.56
2018-12-02T15:05:17.475Z,99503.91
2018-12-02T15:07:46.957Z,99494.97
2018-12-02T15:10:17.466Z,99505.01
2018-12-02T15:12:48.463Z,99494.97
2018-12-02T15:15:21.259Z,99495.16
2018-12-02T15:17:56.396Z,99499.27
2018-12-02T15:20:25.728Z,99501.21
2018-12-02T15:22:58.425Z,99509.05
2018-12-02T15:25:28.216Z,99506.98
2018-12-02T15:27:58.682Z,99510.55
2018-12-02T15:30:28.231Z,99508.78
2018-12-02T15:32:57.655Z,99505.66
2018-12-02T15:35:30.074Z,99512.97
2018-12-02T15:37:59.507Z,99506.98
2018-12-02T15:40:29.106Z,99512.42
2018-12-02T15:42:59.931Z,99508.61
2018-12-02T15:45:29.718Z,99517.95
2018-12-02T15:47:58.638Z,99517.38
2018-12-02T15:50:27.622Z,99512.79
2018-12-02T15:52:56.525Z,99518.47
2018-12-02T15:55:29.805Z,99512.01
2018-12-02T15:57:59.640Z,99518.47
2018-12-02T16:00:29.818Z,99517.14
2018-12-02T16:02:58.748Z,99523.73
2018-12-02T16:05:27.643Z,99513.55
2018-12-02T16:07:56.539Z,99511.84
2018-12-02T16:10:25.463Z,99517.39
2018-12-02T16:12:54.519Z,99508.05
2018-12-02T16:15:28.108Z,99523.20
2018-12-02T16:17:56.997Z,99520.43
2018-12-02T16:20:33.261Z,99527.20
2018-12-02T16:23:02.186Z,99524.81
2018-12-02T16:25:31.073Z,99526.20
2018-12-02T16:27:59.966Z,99524.00
2018-12-02T16:30:28.838Z,99531.79
2018-12-02T16:32:57.749Z,99530.64
2018-12-02T16:35:26.608Z,99531.13
2018-12-02T16:37:55.968Z,99543.33
2018-12-02T16:40:25.734Z,99528.11
2018-12-02T16:42:55.749Z,99529.44
2018-12-02T16:45:24.642Z,99531.13
2018-12-02T16:47:54.851Z,99527.20
2018-12-02T16:50:30.909Z,99527.56
2018-12-02T16:53:34.297Z,99512.94
2018-12-02T16:56:14.246Z,99514.06
2018-12-02T16:59:14.984Z,99524.76
2018-12-02T17:01:46.129Z,99524.76
2018-12-02T17:04:15.196Z,99525.09
2018-12-02T17:06:44.051Z,99525.54
2018-12-02T17:09:13.348Z,99533.09
2018-12-02T17:11:42.939Z,99524.42
2018-12-02T17:14:11.847Z,99524.76
2018-12-02T17:16:40.726Z,99530.53
2018-12-02T17:19:09.634Z,99531.88
2018-12-02T17:21:38.511Z,99531.48
2018-12-02T17:24:08.731Z,99529.47
2018-12-02T17:26:37.645Z,99528.50
2018-12-02T17:29:09.090Z,99529.17
2018-12-02T17:31:43.960Z,99530.53
2018-12-02T17:34:12.852Z,99540.31
2018-12-02T17:36:41.739Z,99541.16
2018-12-02T17:39:15.603Z,99541.06
2018-12-02T17:41:47.150Z,99540.55
2018-12-02T17:44:16.056Z,99542.34
2018-12-02T17:46:44.958Z,99552.46
2018-12-02T17:49:13.869Z,99535.42
2018-12-02T17:51:42.809Z,99545.66
2018-12-02T17:54:11.638Z,99545.84
2018-12-02T17:56:40.545Z,99553.42
2018-12-02T17:59:09.475Z,99543.39
2018-12-02T18:01:38.296Z,99545.66
2018-12-02T18:04:08.011Z,99539.88
2018-12-02T18:06:36.910Z,99545.15
2018-12-02T18:09:09.549Z,99545.84
2018-12-02T18:11:38.483Z,99544.66
2018-12-02T18:14:07.469Z,99529.02
2018-12-02T18:16:36.388Z,99544.13
2018-12-02T18:19:05.965Z,99541.34
2018-12-02T18:21:34.867Z,99544.64
2018-12-02T18:24:03.742Z,99543.28
2018-12-02T18:26:32.655Z,99550.92
2018-12-02T18:29:01.546Z,99549.41
2018-12-02T18:31:30.453Z,99556.53
2018-12-02T18:33:59.354Z,99557.89
2018-12-02T18:36:32.895Z,99557.33
2018-12-02T18:39:01.826Z,99561.88
2018-12-02T18:41:38.648Z,99561.80
2018-12-02T18:44:09.601Z,99559.53
2018-12-02T18:46:38.505Z,99555.94
2018-12-02T18:49:07.462Z,99559.44
2018-12-02T18:51:36.341Z,99544.94
2018-12-02T18:54:06.379Z,99555.78
2018-12-02T18:56:35.294Z,99541.92
2018-12-02T18:59:04.232Z,99543.91
2018-12-02T19:01:33.162Z,99554.27
2018-12-02T19:04:02.438Z,99544.66
2018-12-02T19:06:31.364Z,99551.55
2018-12-02T19:09:00.247Z,99553.64
2018-12-02T19:11:29.147Z,99560.28
2018-12-02T19:13:58.053Z,99552.13
2018-12-02T19:16:26.968Z,99553.48
2018-12-02T19:18:55.857Z,99560.46
2018-12-02T19:21:26.643Z,99559.26
2018-12-02T19:23:57.222Z,99552.13
2018-12-02T19:26:26.049Z,99553.82
2018-12-02T19:28:54.936Z,99551.98
2018-12-02T19:31:23.813Z,99554.11
2018-12-02T19:33:54.779Z,99549.31
2018-12-02T19:36:38.398Z,99548.98
2018-12-02T19:39:11.309Z,99548.55
2018-12-02T19:41:40.207Z,99551.23
2018-12-02T19:44:09.129Z,99552.42
2018-12-02T19:46:38.029Z,99551.75
2018-12-02T19:49:07.010Z,99548.94
2018-12-02T19:51:35.887Z,99545.98
2018-12-02T19:54:04.841Z,99554.23
2018-12-02T19:56:33.736Z,99552.45
2018-12-02T19:59:02.643Z,99553.59
2018-12-02T20:01:31.552Z,99549.12
2018-12-02T20:04:00.463Z,99551.39
2018-12-02T20:06:29.329Z,99557.34
2018-12-02T20:08:58.248Z,99550.99
2018-12-02T20:11:27.159Z,99543.45
2018-12-02T20:13:56.061Z,99545.16
2018-12-02T20:16:24.956Z,99550.63
2018-12-02T20:18:53.869Z,99543.83
2018-12-02T20:21:23.965Z,99550.30
2018-12-02T20:24:11.070Z,99548.94
2018-12-02T20:26:39.975Z,99551.08
2018-12-02T20:29:08.933Z,99558.22
2018-12-02T20:31:37.833Z,99562.11
2018-12-02T20:34:06.965Z,99564.36
2018-12-02T20:36:35.951Z,99555.49
2018-12-02T20:39:08.669Z,99550.27
2018-12-02T20:41:37.554Z,99554.87
2018-12-02T20:44:06.750Z,99549.86
2018-12-02T20:46:35.655Z,99558.47
2018-12-02T20:49:04.525Z,99549.16
2018-12-02T20:51:33.452Z,99539.79
2018-12-02T20:54:02.352Z,99543.20
2018-12-02T20:56:31.231Z,99546.11
2018-12-02T20:59:00.112Z,99549.68
2018-12-02T21:01:28.992Z,99547.40
2018-12-02T21:03:58.772Z,99541.00
2018-12-02T21:06:27.662Z,99546.04
2018-12-02T21:08:56.537Z,99542.66
2018-12-02T21:11:25.442Z,99545.45
2018-12-02T21:13:54.347Z,99540.59
2018-12-02T21:16:23.248Z,99544.53
2018-12-02T21:18:52.149Z,99543.95
2018-12-02T21:21:21.087Z,99538.06
2018-12-02T21:23:49.979Z,99543.10
2018-12-02T21:26:18.857Z,99542.73
2018-12-02T21:28:47.768Z,99544.34
2018-12-02T21:31:16.656Z,99534.78
2018-12-02T21:33:45.579Z,99539.27
2018-12-02T21:36:14.457Z,99527.18
2018-12-02T21:38:43.363Z,99533.32
2018-12-02T21:41:12.254Z,99529.02
2018-12-02T21:43:41.152Z,99530.59
2018-12-02T21:46:10.044Z,99523.39
2018-12-02T21:48:38.939Z,99527.69
2018-12-02T21:51:07.880Z,99527.76
2018-12-02T21:53:36.783Z,99524.38
2018-12-02T21:56:06.170Z,99516.55
2018-12-02T21:58:35.098Z,99523.20
2018-12-02T22:01:16.272Z,99521.00
2018-12-02T22:03:45.195Z,99525.95
2018-12-02T22:06:14.116Z,99528.55
2018-12-02T22:08:43.055Z,99521.24
2018-12-02T22:11:11.974Z,99523.30
2018-12-02T22:13:43.392Z,99519.44
2018-12-02T22:16:09.807Z,99519.03
2018-12-02T22:18:38.716Z,99513.12
2018-12-02T22:21:07.641Z,99509.85
2018-12-02T22:23:36.547Z,99505.77
2018-12-02T22:26:05.480Z,99505.77
2018-12-02T22:28:34.403Z,99500.92
2018-12-02T22:31:03.280Z,99505.89
2018-12-02T22:33:32.185Z,99500.23
2018-12-02T22:36:01.058Z,99505.56
2018-12-02T22:38:29.970Z,99500.27
2018-12-02T22:40:58.914Z,99501.19
2018-12-02T22:43:27.814Z,99501.41
2018-12-02T22:45:56.707Z,99499.90
2018-12-02T22:48:25.607Z,99498.31
2018-12-02T22:50:54.519Z,99505.13
2018-12-02T22:53:23.649Z,99501.66
2018-12-02T22:55:52.558Z,99500.08
2018-12-02T22:58:21.454Z,99494.75
2018-12-02T23:01:08.231Z,99496.30
2018-12-02T23:03:37.145Z,99501.23
2018-12-02T23:06:06.167Z,99492.04
2018-12-02T23:08:35.052Z,99501.19
2018-12-02T23:11:03.974Z,99499.42
2018-12-02T23:13:32.868Z,99498.98
2018-12-02T23:16:01.750Z,99500.67
2018-12-02T23:18:30.673Z,99504.68
2018-12-02T23:20:59.543Z,99504.09
2018-12-02T23:23:28.447Z,99502.98
2018-12-02T23:25:57.355Z,99505.75
2018-12-02T23:28:26.264Z,99504.38
2018-12-02T23:30:55.164Z,99498.61
2018-12-02T23:33:24.080Z,99497.33
2018-12-02T23:35:52.990Z,99489.30
2018-12-02T23:38:21.911Z,99489.80
2018-12-02T23:40:50.788Z,99479.50
2018-12-02T23:43:19.672Z,99484.56
2018-12-02T23:45:48.595Z,99487.09
2018-12-02T23:48:17.506Z,99486.06
2018-12-02T23:50:46.416Z,99494.45
2018-12-02T23:53:15.311Z,99488.97
2018-12-02T23:55:44.216Z,99485.08
2018-12-02T23:58:13.083Z,99485.13
